createdAt,value
2019-02-22T00:00:05.541Z,102202.83
2019-02-22T00:02:40.402Z,102209.90
2019-02-22T00:05:11.699Z,102214.09
2019-02-22T00:07:43.066Z,102219.63
2019-02-22T00:10:14.235Z,102218.81
2019-02-22T00:12:45.653Z,102227.23
2019-02-22T00:15:16.866Z,102219.24
2019-02-22T00:17:48.063Z,102220.24
2019-02-22T00:20:19.346Z,102226.42
2019-02-22T00:22:50.563Z,102222.76
2019-02-22T00:25:22.711Z,102226.70
2019-02-22T00:27:53.874Z,102232.77
2019-02-22T00:30:25.075Z,102237.10
2019-02-22T00:32:56.259Z,102237.10
2019-02-22T00:35:27.534Z,102234.86
2019-02-22T00:37:58.833Z,102242.89
2019-02-22T00:40:30.023Z,102239.34
2019-02-22T00:43:01.350Z,102244.59
2019-02-22T00:45:32.555Z,102249.03
2019-02-22T00:48:03.771Z,102249.96
2019-02-22T00:50:35.101Z,102251.38
2019-02-22T00:53:06.372Z,102246.34
2019-02-22T00:55:37.591Z,102249.52
2019-02-22T00:58:08.747Z,102249.91
2019-02-22T01:00:39.922Z,102252.92
2019-02-22T01:03:11.055Z,102261.62
2019-02-22T01:05:42.352Z,102261.90
2019-02-22T01:08:13.509Z,102258.88
2019-02-22T01:10:44.666Z,102260.58
2019-02-22T01:13:15.836Z,102267.54
2019-02-22T01:15:47.091Z,102270.59
2019-02-22T01:18:18.261Z,102277.44
2019-02-22T01:20:54.422Z,102282.42
2019-02-22T01:23:22.510Z,102284.13
2019-02-22T01:25:53.806Z,102288.06
2019-02-22T01:28:25.093Z,102282.42
2019-02-22T01:30:57.304Z,102286.75
2019-02-22T01:33:28.614Z,102295.83
2019-02-22T01:35:59.869Z,102294.91
2019-02-22T01:38:31.116Z,102300.83
2019-02-22T01:41:02.385Z,102309.02
2019-02-22T01:43:33.663Z,102309.80
2019-02-22T01:46:04.920Z,102308.88
2019-02-22T01:48:36.171Z,102309.69
2019-02-22T01:51:07.377Z,102312.70
2019-02-22T01:53:38.622Z,102313.62
2019-02-22T01:56:09.851Z,102319.38
2019-02-22T01:58:48.351Z,102315.59
2019-02-22T02:01:13.950Z,102331.36
2019-02-22T02:03:45.220Z,102335.30
2019-02-22T02:06:16.426Z,102333.06
2019-02-22T02:08:47.704Z,102339.35
2019-02-22T02:11:18.959Z,102344.72
2019-02-22T02:13:50.361Z,102343.68
2019-02-22T02:16:21.581Z,102347.90
2019-02-22T02:18:52.778Z,102353.97
2019-02-22T02:21:24.103Z,102355.55
2019-02-22T02:23:55.322Z,102358.69
2019-02-22T02:26:26.503Z,102363.32
2019-02-22T02:28:57.698Z,102361.47
2019-02-22T02:31:28.989Z,102369.08
2019-02-22T02:34:00.365Z,102377.89
2019-02-22T02:36:31.572Z,102374.84
2019-02-22T02:39:02.811Z,102380.24
2019-02-22T02:41:37.682Z,102383.38
2019-02-22T02:44:08.974Z,102381.39
2019-02-22T02:46:40.223Z,102381.51
2019-02-22T02:49:11.585Z,102396.73
2019-02-22T02:51:42.818Z,102402.21
2019-02-22T02:54:14.065Z,102400.63
2019-02-22T02:56:46.325Z,102397.61
2019-02-22T02:59:17.605Z,102401.12
2019-02-22T03:01:48.837Z,102411.37
2019-02-22T03:04:20.030Z,102424.77
2019-02-22T03:07:01.146Z,102433.39
2019-02-22T03:09:33.388Z,102424.19
2019-02-22T03:12:04.634Z,102426.97
2019-02-22T03:14:35.837Z,102435.74
2019-02-22T03:17:07.024Z,102440.22
2019-02-22T03:19:38.216Z,102443.36
2019-02-22T03:22:09.504Z,102437.32
2019-02-22T03:24:40.670Z,102455.19
2019-02-22T03:27:11.892Z,102464.92
2019-02-22T03:29:43.014Z,102462.95
2019-02-22T03:32:14.191Z,102465.97
2019-02-22T03:34:45.350Z,102465.23
2019-02-22T03:37:16.581Z,102478.38
2019-02-22T03:39:47.808Z,102477.34
2019-02-22T03:42:19.059Z,102489.17
2019-02-22T03:44:51.252Z,102486.00
2019-02-22T03:47:22.540Z,102492.34
2019-02-22T03:49:53.735Z,102498.91
2019-02-22T03:52:35.762Z,102497.75
2019-02-22T03:55:07.544Z,102503.66
2019-02-22T03:57:38.742Z,102514.21
2019-02-22T04:00:10.135Z,102512.90
2019-02-22T04:02:41.334Z,102514.59
2019-02-22T04:05:12.494Z,102524.84
2019-02-22T04:07:43.696Z,102523.02
2019-02-22T04:10:14.933Z,102532.06
2019-02-22T04:12:46.206Z,102527.11
2019-02-22T04:15:17.437Z,102540.09
2019-02-22T04:17:48.630Z,102539.98
2019-02-22T04:20:19.822Z,102544.47
2019-02-22T04:22:52.069Z,102543.00
2019-02-22T04:25:23.295Z,102547.24
2019-02-22T04:27:54.479Z,102551.03
2019-02-22T04:30:25.763Z,102549.33
2019-02-22T04:32:56.947Z,102551.95
2019-02-22T04:35:28.246Z,102558.79
2019-02-22T04:37:59.511Z,102563.66
2019-02-22T04:40:30.797Z,102571.16
2019-02-22T04:43:01.955Z,102577.84
2019-02-22T04:45:33.281Z,102577.30
2019-02-22T04:48:05.578Z,102583.09
2019-02-22T04:50:36.811Z,102578.34
2019-02-22T04:53:07.986Z,102581.91
2019-02-22T04:55:39.194Z,102589.40
2019-02-22T04:58:10.499Z,102587.55
2019-02-22T05:00:41.717Z,102594.11
2019-02-22T05:03:12.916Z,102600.56
2019-02-22T05:05:44.239Z,102596.37
2019-02-22T05:08:15.463Z,102601.52
2019-02-22T05:10:46.683Z,102602.55
2019-02-22T05:13:17.869Z,102609.00
2019-02-22T05:15:49.365Z,102604.94
2019-02-22T05:18:20.670Z,102609.00
2019-02-22T05:20:51.879Z,102615.06
2019-02-22T05:23:23.183Z,102620.44
2019-02-22T05:25:54.295Z,102623.20
2019-02-22T05:28:25.889Z,102628.34
2019-02-22T05:30:57.036Z,102629.91
2019-02-22T05:33:28.200Z,102630.56
2019-02-22T05:35:59.427Z,102639.38
2019-02-22T05:38:30.657Z,102643.45
2019-02-22T05:41:01.886Z,102638.58
2019-02-22T05:43:33.073Z,102645.95
2019-02-22T05:46:04.345Z,102646.98
2019-02-22T05:48:38.671Z,102653.81
2019-02-22T05:51:08.589Z,102659.48
2019-02-22T05:53:39.923Z,102665.00
2019-02-22T05:56:12.145Z,102672.33
2019-02-22T05:58:43.363Z,102675.89
2019-02-22T06:01:14.577Z,102689.53
2019-02-22T06:03:45.912Z,102692.58
2019-02-22T06:06:17.291Z,102694.94
2019-02-22T06:08:48.584Z,102701.09
2019-02-22T06:11:20.959Z,102704.38
2019-02-22T06:13:52.147Z,102709.77
2019-02-22T06:16:23.553Z,102713.44
2019-02-22T06:18:54.830Z,102721.32
2019-02-22T06:21:26.048Z,102725.27
2019-02-22T06:23:57.237Z,102734.07
2019-02-22T06:26:30.404Z,102738.64
2019-02-22T06:29:01.450Z,102741.81
2019-02-22T06:31:32.652Z,102750.75
2019-02-22T06:34:03.838Z,102752.19
2019-02-22T06:36:35.072Z,102756.89
2019-02-22T06:39:06.462Z,102757.58
2019-02-22T06:41:37.691Z,102755.33
2019-02-22T06:44:08.922Z,102771.23
2019-02-22T06:46:40.156Z,102777.54
2019-02-22T06:49:11.394Z,102783.44
2019-02-22T06:51:42.603Z,102783.31
2019-02-22T06:54:14.917Z,102792.88
2019-02-22T06:56:47.143Z,102795.52
2019-02-22T06:59:20.205Z,102800.38
2019-02-22T07:01:51.452Z,102801.70
2019-02-22T07:04:22.617Z,102816.65
2019-02-22T07:06:53.825Z,102828.34
2019-02-22T07:09:25.025Z,102827.54
2019-02-22T07:11:59.495Z,102837.92
2019-02-22T07:14:30.712Z,102842.66
2019-02-22T07:17:02.089Z,102851.30
2019-02-22T07:19:33.258Z,102856.55
2019-02-22T07:22:04.467Z,102868.08
2019-02-22T07:24:35.650Z,102877.91
2019-02-22T07:27:06.804Z,102892.47
2019-02-22T07:29:38.035Z,102910.59
2019-02-22T07:32:09.232Z,102906.22
2019-02-22T07:34:40.421Z,102913.97
2019-02-22T07:37:11.552Z,102926.15
2019-02-22T07:39:42.770Z,102935.33
2019-02-22T07:42:14.027Z,102940.69
2019-02-22T07:44:45.198Z,102943.94
2019-02-22T07:47:16.418Z,102960.35
2019-02-22T07:49:47.636Z,102967.52
2019-02-22T07:52:18.855Z,102979.95
2019-02-22T07:54:50.029Z,102982.94
2019-02-22T07:57:21.200Z,102995.41
2019-02-22T07:59:52.368Z,103000.34
2019-02-22T08:02:23.567Z,103015.44
2019-02-22T08:04:54.751Z,103012.89
2019-02-22T08:07:26.030Z,103023.35
2019-02-22T08:09:57.255Z,103023.80
2019-02-22T08:12:28.402Z,103032.36
2019-02-22T08:14:59.587Z,103040.19
2019-02-22T08:17:30.860Z,103048.16
2019-02-22T08:20:02.076Z,103051.95
2019-02-22T08:22:33.386Z,103055.56
2019-02-22T08:25:04.520Z,103055.29
2019-02-22T08:27:35.732Z,103061.42
2019-02-22T08:30:08.822Z,103070.66
2019-02-22T08:32:40.029Z,103081.23
2019-02-22T08:35:10.546Z,103080.81
2019-02-22T08:37:41.857Z,103092.23
2019-02-22T08:40:13.024Z,103100.28
2019-02-22T08:42:44.189Z,103110.95
2019-02-22T08:45:15.418Z,103105.83
2019-02-22T08:47:46.538Z,103128.17
2019-02-22T08:50:17.747Z,103133.23
2019-02-22T08:52:48.926Z,103144.48
2019-02-22T08:55:20.142Z,103139.56
2019-02-22T08:57:52.354Z,103143.94
2019-02-22T09:00:23.542Z,103156.61
2019-02-22T09:02:54.790Z,103165.53
2019-02-22T09:05:26.028Z,103166.20
2019-02-22T09:07:57.325Z,103164.44
2019-02-22T09:10:28.570Z,103162.57
2019-02-22T09:12:59.859Z,103172.66
2019-02-22T09:15:31.039Z,103178.83
2019-02-22T09:18:02.190Z,103184.05
2019-02-22T09:20:34.459Z,103180.88
2019-02-22T09:23:07.609Z,103189.28
2019-02-22T09:25:39.728Z,103191.75
2019-02-22T09:28:10.878Z,103206.88
2019-02-22T09:30:42.135Z,103212.95
2019-02-22T09:33:13.439Z,103218.41
2019-02-22T09:35:44.631Z,103217.84
2019-02-22T09:38:15.842Z,103229.61
2019-02-22T09:40:47.086Z,103229.09
2019-02-22T09:43:18.278Z,103245.52
2019-02-22T09:45:49.486Z,103245.80
2019-02-22T09:48:20.754Z,103256.16
2019-02-22T09:50:51.967Z,103261.08
2019-02-22T09:53:23.180Z,103267.69
2019-02-22T09:55:54.529Z,103271.72
2019-02-22T09:58:26.794Z,103273.67
2019-02-22T10:00:58.077Z,103276.55
2019-02-22T10:03:29.275Z,103281.84
2019-02-22T10:06:00.435Z,103288.95
2019-02-22T10:08:31.775Z,103293.30
2019-02-22T10:11:02.958Z,103295.59
2019-02-22T10:13:34.254Z,103295.97
2019-02-22T10:16:05.415Z,103300.61
2019-02-22T10:18:36.793Z,103307.87
2019-02-22T10:21:07.989Z,103307.09
2019-02-22T10:23:39.215Z,103306.31
2019-02-22T10:26:10.503Z,103318.80
2019-02-22T10:28:41.699Z,103320.83
2019-02-22T10:31:12.929Z,103323.23
2019-02-22T10:33:44.103Z,103328.61
2019-02-22T10:36:15.304Z,103331.39
2019-02-22T10:38:46.521Z,103331.91
2019-02-22T10:41:17.714Z,103334.73
2019-02-22T10:43:49.114Z,103336.83
2019-02-22T10:46:22.466Z,103339.81
2019-02-22T10:48:53.861Z,103344.66
2019-02-22T10:51:25.151Z,103345.03
2019-02-22T10:53:56.347Z,103350.10
2019-02-22T10:56:28.458Z,103349.94
2019-02-22T10:58:59.698Z,103358.56
2019-02-22T11:01:30.974Z,103358.58
2019-02-22T11:04:02.140Z,103366.87
2019-02-22T11:06:33.327Z,103368.80
2019-02-22T11:09:05.525Z,103371.47
2019-02-22T11:11:37.597Z,103378.37
2019-02-22T11:14:08.772Z,103378.00
2019-02-22T11:16:39.945Z,103387.14
2019-02-22T11:19:11.303Z,103396.13
2019-02-22T11:21:42.504Z,103390.54
2019-02-22T11:24:13.677Z,103397.07
2019-02-22T11:26:44.945Z,103406.22
2019-02-22T11:29:17.264Z,103406.78
2019-02-22T11:31:48.482Z,103401.77
2019-02-22T11:34:19.664Z,103412.01
2019-02-22T11:36:51.026Z,103416.63
2019-02-22T11:39:22.226Z,103408.98
2019-02-22T11:41:53.452Z,103408.00
2019-02-22T11:44:24.665Z,103420.23
2019-02-22T11:46:55.945Z,103415.38
2019-02-22T11:49:27.183Z,103416.63
2019-02-22T11:51:58.390Z,103412.30
2019-02-22T11:54:29.605Z,103418.00
2019-02-22T11:57:00.811Z,103420.57
2019-02-22T11:59:31.951Z,103422.39
2019-02-22T12:02:03.278Z,103421.36
2019-02-22T12:04:34.473Z,103423.55
2019-02-22T12:07:05.651Z,103422.34
2019-02-22T12:09:36.844Z,103426.41
2019-02-22T12:12:08.136Z,103426.11
2019-02-22T12:14:39.337Z,103418.94
2019-02-22T12:17:10.594Z,103418.08
2019-02-22T12:19:41.765Z,103418.91
2019-02-22T12:22:13.990Z,103419.67
2019-02-22T12:24:45.231Z,103426.41
2019-02-22T12:27:16.483Z,103421.98
2019-02-22T12:29:47.654Z,103430.44
2019-02-22T12:32:18.864Z,103436.80
2019-02-22T12:34:51.130Z,103438.88
2019-02-22T12:37:22.315Z,103445.95
2019-02-22T12:39:53.524Z,103439.05
2019-02-22T12:42:24.823Z,103446.92
2019-02-22T12:45:02.993Z,103463.45
2019-02-22T12:47:28.964Z,103452.67
2019-02-22T12:50:00.250Z,103462.23
2019-02-22T12:52:31.530Z,103462.50
2019-02-22T12:55:02.692Z,103457.26
2019-02-22T12:57:34.935Z,103457.34
2019-02-22T13:00:07.893Z,103457.03
2019-02-22T13:02:39.222Z,103463.06
2019-02-22T13:05:12.478Z,103460.92
2019-02-22T13:07:43.636Z,103463.55
2019-02-22T13:10:15.047Z,103465.28
2019-02-22T13:12:47.314Z,103466.61
2019-02-22T13:15:18.662Z,103461.97
2019-02-22T13:17:49.849Z,103465.09
2019-02-22T13:20:21.011Z,103466.84
2019-02-22T13:22:52.215Z,103471.06
2019-02-22T13:25:23.482Z,103472.62
2019-02-22T13:27:54.633Z,103462.89
2019-02-22T13:30:25.846Z,103465.76
2019-02-22T13:32:57.056Z,103467.10
2019-02-22T13:35:28.277Z,103478.02
2019-02-22T13:37:59.456Z,103485.34
2019-02-22T13:40:30.676Z,103485.48
2019-02-22T13:43:01.889Z,103490.35
2019-02-22T13:45:34.108Z,103495.74
2019-02-22T13:48:05.323Z,103505.38
2019-02-22T13:50:36.520Z,103506.76
2019-02-22T13:53:07.704Z,103507.33
2019-02-22T13:55:39.007Z,103506.92
2019-02-22T13:58:10.192Z,103504.16
2019-02-22T14:00:41.353Z,103512.13
2019-02-22T14:03:12.587Z,103507.25
2019-02-22T14:05:43.758Z,103494.73
2019-02-22T14:08:14.944Z,103499.86
2019-02-22T14:10:46.208Z,103496.92
2019-02-22T14:13:17.653Z,103497.08
2019-02-22T14:15:48.860Z,103508.60
2019-02-22T14:18:20.104Z,103512.67
2019-02-22T14:20:51.369Z,103514.61
2019-02-22T14:23:22.541Z,103518.64
2019-02-22T14:25:53.782Z,103521.94
2019-02-22T14:28:25.043Z,103527.63
2019-02-22T14:30:56.212Z,103527.02
2019-02-22T14:33:27.400Z,103522.73
2019-02-22T14:35:58.580Z,103530.09
2019-02-22T14:38:29.808Z,103527.64
2019-02-22T14:41:01.008Z,103522.20
2019-02-22T14:43:32.334Z,103523.84
2019-02-22T14:46:03.499Z,103527.56
2019-02-22T14:48:34.667Z,103527.52
2019-02-22T14:51:05.906Z,103523.31
2019-02-22T14:53:37.115Z,103519.80
2019-02-22T14:56:08.376Z,103507.19
2019-02-22T14:58:39.666Z,103509.17
2019-02-22T15:01:10.926Z,103515.27
2019-02-22T15:03:42.131Z,103514.23
2019-02-22T15:06:13.302Z,103524.77
2019-02-22T15:08:44.530Z,103529.60
2019-02-22T15:11:15.723Z,103520.43
2019-02-22T15:13:47.934Z,103526.58
2019-02-22T15:16:44.108Z,103539.53
2019-02-22T15:19:15.741Z,103548.59
2019-02-22T15:21:47.181Z,103548.52
2019-02-22T15:24:18.376Z,103553.67
2019-02-22T15:26:49.583Z,103556.78
2019-02-22T15:29:20.817Z,103562.13
2019-02-22T15:31:52.082Z,103569.15
2019-02-22T15:34:23.336Z,103563.83
2019-02-22T15:36:54.542Z,103558.58
2019-02-22T15:39:25.980Z,103556.02
2019-02-22T15:41:57.253Z,103556.08
2019-02-22T15:44:28.582Z,103551.27
2019-02-22T15:47:11.063Z,103557.17
2019-02-22T15:49:33.033Z,103549.42
2019-02-22T15:52:04.459Z,103549.47
2019-02-22T15:54:35.691Z,103557.23
2019-02-22T15:57:06.846Z,103562.49
2019-02-22T15:59:38.067Z,103572.44
2019-02-22T16:02:09.327Z,103572.23
2019-02-22T16:04:54.019Z,103586.27
2019-02-22T16:07:26.230Z,103580.88
2019-02-22T16:09:57.384Z,103590.16
2019-02-22T16:12:28.787Z,103593.92
2019-02-22T16:14:59.980Z,103596.05
2019-02-22T16:17:32.274Z,103595.93
2019-02-22T16:20:04.430Z,103591.03
2019-02-22T16:22:35.655Z,103594.95
2019-02-22T16:25:18.562Z,103602.00
2019-02-22T16:27:39.849Z,103601.82
2019-02-22T16:30:12.420Z,103609.27
2019-02-22T16:32:43.538Z,103614.31
2019-02-22T16:35:17.653Z,103622.64
2019-02-22T16:37:48.788Z,103622.39
2019-02-22T16:40:19.991Z,103629.48
2019-02-22T16:42:51.226Z,103635.34
2019-02-22T16:45:22.480Z,103632.14
2019-02-22T16:47:53.677Z,103641.34
2019-02-22T16:50:24.823Z,103645.96
2019-02-22T16:52:56.095Z,103650.78
2019-02-22T16:55:31.236Z,103654.59
2019-02-22T16:58:02.481Z,103653.70
2019-02-22T17:00:33.715Z,103659.73
2019-02-22T17:03:05.480Z,103661.45
2019-02-22T17:05:36.744Z,103665.58
2019-02-22T17:08:07.916Z,103669.91
2019-02-22T17:10:39.065Z,103667.83
2019-02-22T17:13:10.798Z,103676.77
2019-02-22T17:15:42.049Z,103684.41
2019-02-22T17:18:13.266Z,103695.05
2019-02-22T17:20:44.743Z,103703.97
2019-02-22T17:23:15.953Z,103708.41
2019-02-22T17:25:47.140Z,103708.02
2019-02-22T17:28:18.390Z,103707.91
2019-02-22T17:30:49.616Z,103715.47
2019-02-22T17:33:20.751Z,103718.91
2019-02-22T17:35:52.120Z,103725.00
2019-02-22T17:38:23.240Z,103735.50
2019-02-22T17:40:54.526Z,103740.81
2019-02-22T17:43:25.749Z,103745.01
2019-02-22T17:45:56.992Z,103742.83
2019-02-22T17:48:28.184Z,103745.91
2019-02-22T17:50:59.333Z,103756.77
2019-02-22T17:53:30.633Z,103751.20
2019-02-22T17:56:03.000Z,103749.22
2019-02-22T17:58:34.227Z,103750.34
2019-02-22T18:01:05.508Z,103754.50
2019-02-22T18:03:36.694Z,103756.43
2019-02-22T18:06:07.921Z,103746.03
2019-02-22T18:08:39.219Z,103733.75
2019-02-22T18:11:10.430Z,103729.89
2019-02-22T18:13:41.648Z,103735.87
2019-02-22T18:16:12.865Z,103731.80
2019-02-22T18:18:44.344Z,103726.44
2019-02-22T18:21:15.584Z,103726.28
2019-02-22T18:23:47.080Z,103719.20
2019-02-22T18:26:18.319Z,103727.42
2019-02-22T18:28:49.618Z,103724.49
2019-02-22T18:31:20.911Z,103722.27
2019-02-22T18:33:52.113Z,103716.53
2019-02-22T18:36:23.280Z,103721.20
2019-02-22T18:38:54.524Z,103720.09
2019-02-22T18:41:25.743Z,103712.48
2019-02-22T18:43:56.938Z,103721.28
2019-02-22T18:46:28.103Z,103727.83
2019-02-22T18:48:59.264Z,103739.38
2019-02-22T18:51:30.461Z,103746.28
2019-02-22T18:54:01.678Z,103747.59
2019-02-22T18:56:32.891Z,103756.34
2019-02-22T18:59:04.075Z,103760.63
2019-02-22T19:01:35.265Z,103766.62
2019-02-22T19:04:10.715Z,103763.44
2019-02-22T19:06:42.006Z,103767.73
2019-02-22T19:09:13.180Z,103770.73
2019-02-22T19:11:44.315Z,103771.47
2019-02-22T19:14:15.533Z,103769.99
2019-02-22T19:16:46.701Z,103764.97
2019-02-22T19:19:18.028Z,103762.37
2019-02-22T19:21:49.264Z,103771.86
2019-02-22T19:24:21.506Z,103775.01
2019-02-22T19:26:52.821Z,103777.80
2019-02-22T19:29:25.066Z,103774.28
2019-02-22T19:31:56.613Z,103781.16
2019-02-22T19:34:27.917Z,103787.50
2019-02-22T19:36:59.126Z,103788.80
2019-02-22T19:39:31.325Z,103794.19
2019-02-22T19:42:02.536Z,103796.80
2019-02-22T19:44:35.156Z,103791.37
2019-02-22T19:47:06.622Z,103798.81
2019-02-22T19:49:38.772Z,103801.05
2019-02-22T19:52:10.402Z,103799.75
2019-02-22T19:54:44.752Z,103810.70
2019-02-22T19:57:15.272Z,103812.19
2019-02-22T19:59:46.538Z,103819.41
2019-02-22T20:02:17.779Z,103827.44
2019-02-22T20:04:49.132Z,103826.67
2019-02-22T20:07:20.328Z,103834.12
2019-02-22T20:09:55.471Z,103834.11
2019-02-22T20:12:29.164Z,103841.52
2019-02-22T20:14:59.774Z,103843.92
2019-02-22T20:17:31.159Z,103849.12
2019-02-22T20:20:02.453Z,103854.13
2019-02-22T20:22:33.808Z,103854.11
2019-02-22T20:25:05.165Z,103855.34
2019-02-22T20:27:36.355Z,103855.34
2019-02-22T20:30:09.449Z,103868.93
2019-02-22T20:32:40.694Z,103868.14
2019-02-22T20:35:14.557Z,103872.22
2019-02-22T20:37:52.622Z,103880.02
2019-02-22T20:40:18.838Z,103874.03
2019-02-22T20:42:50.473Z,103874.03
2019-02-22T20:45:21.952Z,103874.23
2019-02-22T20:48:05.023Z,103874.41
2019-02-22T20:50:34.921Z,103868.79
2019-02-22T20:53:08.191Z,103860.20
2019-02-22T20:55:39.583Z,103872.65
2019-02-22T20:58:10.951Z,103874.88
2019-02-22T21:00:42.147Z,103876.70
2019-02-22T21:03:16.138Z,103871.64
2019-02-22T21:05:46.636Z,103873.28
2019-02-22T21:08:17.871Z,103866.92
2019-02-22T21:10:49.139Z,103870.80
2019-02-22T21:13:20.511Z,103874.13
2019-02-22T21:15:51.844Z,103874.47
2019-02-22T21:18:23.173Z,103871.45
2019-02-22T21:20:54.399Z,103876.04
2019-02-22T21:23:25.684Z,103879.37
2019-02-22T21:25:56.879Z,103874.50
2019-02-22T21:28:29.477Z,103882.45
2019-02-22T21:31:00.758Z,103891.88
2019-02-22T21:33:32.051Z,103891.88
2019-02-22T21:36:04.852Z,103892.05
2019-02-22T21:38:36.062Z,103904.06
2019-02-22T21:41:07.301Z,103919.86
2019-02-22T21:43:38.562Z,103922.03
2019-02-22T21:46:09.834Z,103922.03
2019-02-22T21:48:41.714Z,103924.80
2019-02-22T21:51:12.933Z,103933.69
2019-02-22T21:53:45.267Z,103936.09
2019-02-22T21:56:16.953Z,103931.05
2019-02-22T21:58:51.411Z,103930.50
2019-02-22T22:01:22.680Z,103926.61
2019-02-22T22:03:53.969Z,103921.57
2019-02-22T22:06:25.120Z,103928.78
2019-02-22T22:08:56.294Z,103936.19
2019-02-22T22:11:27.522Z,103928.35
2019-02-22T22:13:58.718Z,103917.17
2019-02-22T22:16:30.007Z,103920.33
2019-02-22T22:19:01.238Z,103928.08
2019-02-22T22:21:32.412Z,103929.54
2019-02-22T22:24:03.613Z,103944.73
2019-02-22T22:26:34.807Z,103960.48
2019-02-22T22:29:06.035Z,103961.38
2019-02-22T22:31:37.287Z,103955.40
2019-02-22T22:34:08.653Z,103952.41
2019-02-22T22:36:41.006Z,103961.30
2019-02-22T22:39:12.160Z,103959.80
2019-02-22T22:41:43.493Z,103951.58
2019-02-22T22:44:14.689Z,103954.72
2019-02-22T22:46:47.009Z,103945.59
2019-02-22T22:49:18.233Z,103947.41
2019-02-22T22:51:49.412Z,103943.66
2019-02-22T22:54:20.571Z,103936.97
2019-02-22T22:56:51.897Z,103945.51
2019-02-22T22:59:23.030Z,103961.23
2019-02-22T23:01:55.512Z,103955.45
2019-02-22T23:04:26.786Z,103968.04
2019-02-22T23:06:58.164Z,103979.67
2019-02-22T23:09:29.479Z,103986.13
2019-02-22T23:12:00.764Z,103985.13
2019-02-22T23:14:32.556Z,103982.13
2019-02-22T23:17:03.725Z,103983.19
2019-02-22T23:19:35.105Z,103966.13
2019-02-22T23:22:06.238Z,103975.00
2019-02-22T23:24:37.743Z,103981.29
2019-02-22T23:27:10.057Z,103976.25
2019-02-22T23:29:41.346Z,103961.03
2019-02-22T23:32:12.540Z,103971.21
2019-02-22T23:34:43.750Z,103974.55
2019-02-22T23:37:14.923Z,103976.20
2019-02-22T23:39:46.208Z,103970.81
2019-02-22T23:42:18.981Z,103964.48
2019-02-22T23:44:50.168Z,103968.52
2019-02-22T23:47:21.362Z,103968.67
2019-02-22T23:49:52.595Z,103968.82
2019-02-22T23:52:23.786Z,103974.36
2019-02-22T23:54:54.980Z,103979.00
2019-02-22T23:57:26.164Z,103973.61
2019-02-22T23:59:57.401Z,103980.80
